Time;durP1;ratioP1;P1;durP2;ratioP2;P2;SDS_P1;SDS_P2;PMS_P1;PMS_P2;Temp;Humidity;BMP_temperature;BMP_pressure;BME280_temperature;BME280_humidity;BME280_pressure;Samples;Min_cycle;Max_cycle;Signal;HPM_P1;HPM_P2
2023/07/07 00:01:21;;;;;;;1.50;1.10;;;12.30;99.90;;;;;;5044272;28;20032;-79
2023/07/07 00:03:47;;;;;;;2.05;1.90;;;12.20;99.90;;;;;;5043915;28;20496;-79
2023/07/07 00:06:12;;;;;;;2.63;2.40;;;12.10;99.90;;;;;;5045078;28;20036;-79
2023/07/07 00:08:38;;;;;;;2.67;2.40;;;12.10;99.90;;;;;;5043023;28;20042;-79
2023/07/07 00:11:04;;;;;;;3.25;2.33;;;12.10;99.90;;;;;;5039460;28;20047;-80
2023/07/07 00:13:30;;;;;;;4.70;2.42;;;12.10;99.90;;;;;;5039398;28;20111;-79
2023/07/07 00:16:00;;;;;;;5.43;2.20;;;12.10;99.90;;;;;;5040745;28;20036;-80
2023/07/07 00:18:26;;;;;;;2.88;2.35;;;12.10;99.90;;;;;;5042920;28;20033;-81
2023/07/07 00:20:56;;;;;;;2.75;1.70;;;12.10;99.90;;;;;;5039523;28;20048;-79
2023/07/07 00:23:22;;;;;;;3.40;1.83;;;12.10;99.90;;;;;;5042054;28;20045;-81
2023/07/07 00:26:02;;;;;;;4.20;2.70;;;12.10;99.90;;;;;;5041871;28;20401;-79
2023/07/07 00:28:29;;;;;;;3.88;1.75;;;12.00;99.90;;;;;;5042489;28;20045;-79
2023/07/07 00:30:54;;;;;;;4.40;1.40;;;12.00;99.90;;;;;;5046342;28;20119;-79
2023/07/07 00:33:20;;;;;;;3.75;1.70;;;12.00;99.90;;;;;;5042169;28;20120;-79
2023/07/07 00:35:47;;;;;;;1.33;1.05;;;11.90;99.90;;;;;;5040908;28;20051;-79
2023/07/07 00:38:12;;;;;;;3.50;2.50;;;11.90;99.90;;;;;;5024927;28;20037;-79
2023/07/07 00:40:38;;;;;;;2.38;2.13;;;11.80;99.90;;;;;;5031335;28;20051;-79
2023/07/07 00:43:30;;;;;;;3.20;1.45;;;11.80;99.90;;;;;;5029931;28;20037;-78
2023/07/07 00:45:57;;;;;;;6.95;1.92;;;11.80;99.90;;;;;;5037623;28;20057;-79
2023/07/07 00:48:26;;;;;;;2.83;1.85;;;11.80;99.90;;;;;;5037122;28;20399;-80
2023/07/07 00:50:57;;;;;;;3.90;2.17;;;11.80;99.90;;;;;;5049170;28;20060;-78
2023/07/07 00:53:24;;;;;;;2.72;2.08;;;11.70;99.90;;;;;;5045547;28;20116;-78
2023/07/07 00:55:55;;;;;;;5.97;1.92;;;11.60;99.90;;;;;;5038697;28;20053;-78
2023/07/07 00:58:24;;;;;;;3.67;1.70;;;11.60;99.90;;;;;;5042777;28;20075;-78
2023/07/07 01:00:57;;;;;;;6.13;1.48;;;11.60;99.90;;;;;;5043454;28;20538;-78
2023/07/07 01:03:27;;;;;;;2.42;1.92;;;11.60;99.90;;;;;;5039834;28;20049;-79
2023/07/07 01:05:56;;;;;;;2.95;2.10;;;11.60;99.90;;;;;;5042742;28;20060;-79
2023/07/07 01:08:23;;;;;;;2.70;2.50;;;11.60;99.90;;;;;;5025730;28;20043;-79
2023/07/07 01:10:48;;;;;;;4.18;3.20;;;11.60;99.90;;;;;;5027226;28;20452;-79
2023/07/07 01:13:14;;;;;;;4.88;3.30;;;11.60;99.90;;;;;;5042996;28;20057;-78
2023/07/07 01:16:11;;;;;;;4.85;3.92;;;11.60;99.90;;;;;;5042420;28;20041;-78
2023/07/07 01:19:25;;;;;;;5.25;3.10;;;11.60;99.90;;;;;;5041839;28;20057;-78
2023/07/07 01:22:23;;;;;;;5.43;3.05;;;11.60;99.90;;;;;;4999704;28;20087;-80
2023/07/07 01:25:26;;;;;;;3.58;2.50;;;11.70;99.90;;;;;;5059333;28;20048;-79
2023/07/07 01:27:53;;;;;;;4.22;2.90;;;11.70;99.90;;;;;;5040410;28;20052;-78
2023/07/07 01:30:58;;;;;;;2.42;2.22;;;11.80;99.90;;;;;;5040980;28;20052;-79
2023/07/07 01:33:28;;;;;;;2.78;2.50;;;11.70;99.90;;;;;;5040080;28;20045;-79
2023/07/07 01:35:53;;;;;;;3.35;2.58;;;11.70;99.90;;;;;;5043764;28;20064;-79
2023/07/07 01:38:39;;;;;;;4.40;2.50;;;11.70;99.90;;;;;;5034741;28;20075;-80
2023/07/07 01:41:36;;;;;;;3.65;2.08;;;11.60;99.90;;;;;;5044281;28;20048;-78
2023/07/07 01:44:20;;;;;;;;;;;11.60;99.90;;;;;;5037926;28;20095;-78
2023/07/07 01:47:00;;;;;;;3.20;2.78;;;11.60;99.90;;;;;;5044449;28;19917;-79
2023/07/07 01:49:33;;;;;;;9.15;3.38;;;11.60;99.90;;;;;;5044740;28;20062;-79
2023/07/07 01:52:23;;;;;;;4.90;4.30;;;11.60;99.90;;;;;;5046612;28;20506;-78
2023/07/07 01:54:52;;;;;;;7.45;4.63;;;11.60;99.90;;;;;;5041699;28;20049;-79
2023/07/07 01:57:20;;;;;;;10.15;5.45;;;11.60;99.90;;;;;;5036607;28;20045;-78
2023/07/07 01:59:46;;;;;;;7.25;5.90;;;11.70;99.90;;;;;;5042239;28;20484;-78
2023/07/07 02:02:13;;;;;;;7.38;6.18;;;11.80;99.90;;;;;;5042967;28;20049;-79
2023/07/07 02:04:38;;;;;;;6.25;5.65;;;11.80;99.90;;;;;;5042509;28;20040;-78
2023/07/07 02:07:04;;;;;;;9.20;6.45;;;11.90;99.90;;;;;;5049401;28;20082;-78
2023/07/07 02:09:29;;;;;;;10.73;8.25;;;11.90;99.90;;;;;;5043758;28;20041;-78
2023/07/07 02:11:55;;;;;;;7.38;6.32;;;11.90;99.90;;;;;;5046288;28;20045;-78
2023/07/07 02:14:20;;;;;;;8.02;7.10;;;12.00;99.90;;;;;;5042576;28;20129;-78
2023/07/07 02:16:49;;;;;;;7.68;6.85;;;12.00;99.90;;;;;;5043413;28;20048;-79
2023/07/07 02:19:15;;;;;;;7.78;6.97;;;12.00;99.90;;;;;;5040719;28;20102;-80
2023/07/07 02:21:40;;;;;;;9.63;7.65;;;12.00;99.90;;;;;;5047509;28;20536;-80
2023/07/07 02:24:06;;;;;;;8.90;8.00;;;12.00;99.90;;;;;;5040849;28;20827;-79
2023/07/07 02:26:31;;;;;;;10.70;9.27;;;12.00;99.90;;;;;;5043411;28;20074;-78
2023/07/07 02:28:57;;;;;;;10.10;8.38;;;12.10;99.90;;;;;;5039658;28;20037;-79
2023/07/07 02:31:24;;;;;;;10.27;9.15;;;12.00;99.90;;;;;;5037119;28;20045;-78
2023/07/07 02:33:50;;;;;;;12.02;9.48;;;12.10;99.90;;;;;;5038988;28;20045;-79
2023/07/07 02:36:18;;;;;;;15.60;9.88;;;12.10;99.90;;;;;;5042943;28;20400;-78
2023/07/07 02:38:44;;;;;;;13.27;10.25;;;12.10;99.90;;;;;;5043082;28;20045;-79
2023/07/07 02:41:10;;;;;;;14.35;10.25;;;12.10;99.90;;;;;;5043340;28;20025;-79
2023/07/07 02:43:35;;;;;;;13.45;10.77;;;12.20;99.90;;;;;;5045327;28;20033;-79
2023/07/07 02:46:01;;;;;;;10.88;9.52;;;12.30;99.90;;;;;;5039204;28;20048;-78
2023/07/07 02:48:26;;;;;;;14.25;11.20;;;12.30;99.90;;;;;;5037999;28;20034;-79
2023/07/07 02:50:57;;;;;;;13.63;10.70;;;12.30;99.90;;;;;;5046808;28;20487;-79
2023/07/07 02:53:29;;;;;;;12.90;11.43;;;12.30;99.90;;;;;;5043077;28;20044;-78
2023/07/07 02:55:55;;;;;;;13.98;11.43;;;12.40;99.90;;;;;;5039536;28;20048;-79
2023/07/07 02:58:22;;;;;;;15.35;11.48;;;12.50;99.90;;;;;;5038691;28;20098;-79
2023/07/07 03:00:48;;;;;;;15.65;12.70;;;12.60;99.90;;;;;;5041594;28;20095;-78
2023/07/07 03:03:14;;;;;;;13.18;11.82;;;12.70;99.90;;;;;;5037387;28;20029;-79
2023/07/07 03:05:41;;;;;;;14.80;13.05;;;12.80;99.90;;;;;;5043836;28;20167;-79
2023/07/07 03:08:06;;;;;;;14.13;11.93;;;12.80;99.90;;;;;;5037170;28;20041;-79
2023/07/07 03:10:34;;;;;;;15.02;12.05;;;12.80;99.90;;;;;;5040779;28;20103;-79
2023/07/07 03:12:59;;;;;;;24.10;13.10;;;12.90;99.90;;;;;;5042117;28;20129;-79
2023/07/07 03:15:39;;;;;;;14.40;12.90;;;12.90;99.90;;;;;;5036292;28;20072;-78
2023/07/07 03:18:07;;;;;;;14.50;12.77;;;13.00;99.90;;;;;;5041694;28;20044;-79
2023/07/07 03:20:33;;;;;;;13.73;12.43;;;13.00;99.90;;;;;;5042050;28;20068;-79
2023/07/07 03:22:58;;;;;;;18.00;13.20;;;13.00;99.90;;;;;;5043081;28;20061;-79
2023/07/07 03:25:26;;;;;;;18.25;13.23;;;13.00;99.90;;;;;;5040055;28;20037;-79
2023/07/07 03:27:51;;;;;;;14.95;12.52;;;13.10;99.90;;;;;;5037458;28;20275;-79
2023/07/07 03:30:17;;;;;;;16.30;12.43;;;13.10;99.90;;;;;;5037182;28;20391;-79
2023/07/07 03:32:43;;;;;;;15.00;12.35;;;13.00;99.90;;;;;;5039131;28;20134;-79
2023/07/07 03:35:08;;;;;;;14.10;12.35;;;13.00;99.90;;;;;;5041477;28;20514;-79
2023/07/07 03:37:36;;;;;;;17.08;13.52;;;13.10;99.90;;;;;;5046940;28;20037;-79
2023/07/07 03:40:02;;;;;;;15.00;13.13;;;13.10;99.90;;;;;;5048323;28;20041;-79
2023/07/07 03:42:29;;;;;;;14.32;12.82;;;13.20;99.90;;;;;;5042373;28;20029;-80
2023/07/07 03:44:55;;;;;;;14.05;12.18;;;13.20;99.90;;;;;;5039866;28;20041;-79
2023/07/07 03:47:20;;;;;;;14.90;13.13;;;13.20;99.90;;;;;;5040235;28;20492;-79
2023/07/07 03:49:48;;;;;;;14.30;12.90;;;13.20;99.90;;;;;;5040232;28;20045;-79
2023/07/07 03:52:14;;;;;;;17.35;13.10;;;13.30;99.90;;;;;;5026261;28;20069;-79
2023/07/07 03:54:41;;;;;;;18.98;13.90;;;13.40;99.90;;;;;;5045752;28;20079;-79
2023/07/07 03:57:07;;;;;;;15.75;13.38;;;13.40;99.90;;;;;;5042227;28;20052;-81
2023/07/07 03:59:32;;;;;;;15.27;12.30;;;13.40;99.90;;;;;;5046482;28;20041;-78
2023/07/07 04:01:58;;;;;;;16.35;13.02;;;13.50;99.90;;;;;;5024481;28;20037;-78
2023/07/07 04:04:25;;;;;;;14.02;12.18;;;13.50;99.90;;;;;;5040309;28;20081;-78
2023/07/07 04:06:56;;;;;;;15.48;12.18;;;13.50;99.90;;;;;;5042106;28;20040;-79
2023/07/07 04:09:22;;;;;;;17.48;13.23;;;13.60;99.90;;;;;;5039325;28;20081;-78
2023/07/07 04:11:48;;;;;;;14.70;12.75;;;13.70;99.90;;;;;;5047473;28;20041;-78
2023/07/07 04:14:14;;;;;;;15.57;12.77;;;13.70;99.90;;;;;;5049991;28;20044;-78
2023/07/07 04:16:39;;;;;;;13.02;11.82;;;13.80;99.90;;;;;;5042651;28;20046;-78
2023/07/07 04:19:05;;;;;;;13.40;11.45;;;13.90;99.90;;;;;;5040994;28;20043;-80
2023/07/07 04:21:32;;;;;;;15.13;10.82;;;14.10;99.90;;;;;;5046392;28;20067;-80
2023/07/07 04:23:59;;;;;;;14.85;10.75;;;14.20;99.90;;;;;;5041976;28;20052;-80
2023/07/07 04:26:27;;;;;;;11.90;10.68;;;14.60;99.90;;;;;;5037465;28;20141;-79
2023/07/07 04:28:54;;;;;;;10.95;9.52;;;15.20;99.90;;;;;;5043961;28;20054;-80
2023/07/07 04:31:23;;;;;;;10.43;9.15;;;16.40;99.90;;;;;;5054967;28;20052;-80
2023/07/07 04:33:49;;;;;;;10.38;9.25;;;17.50;99.90;;;;;;5044113;28;20510;-81
2023/07/07 04:36:14;;;;;;;9.35;8.45;;;18.70;99.90;;;;;;5045167;28;20040;-80
2023/07/07 04:38:40;;;;;;;9.10;8.02;;;19.50;99.90;;;;;;5046344;28;20501;-80
2023/07/07 04:41:26;;;;;;;10.02;8.43;;;20.30;99.90;;;;;;5048971;28;20032;-81
2023/07/07 04:43:59;;;;;;;8.32;7.63;;;21.10;99.90;;;;;;5047350;28;20124;-78
2023/07/07 04:46:36;;;;;;;10.85;6.95;;;21.70;99.90;;;;;;5036960;28;20128;-79
2023/07/07 04:49:09;;;;;;;10.45;7.68;;;22.40;99.90;;;;;;5039881;28;20048;-79
2023/07/07 04:51:40;;;;;;;9.15;8.25;;;22.20;99.90;;;;;;5057278;28;20040;-79
2023/07/07 04:54:06;;;;;;;16.52;8.00;;;22.70;99.90;;;;;;5045339;28;20075;-82
2023/07/07 04:56:35;;;;;;;8.13;7.32;;;22.70;99.90;;;;;;5024910;28;20053;-79
2023/07/07 04:59:02;;;;;;;7.18;6.28;;;22.90;99.90;;;;;;5022335;28;20041;-79
2023/07/07 05:01:29;;;;;;;7.90;7.05;;;23.50;99.90;;;;;;5039598;28;20522;-79
2023/07/07 05:04:00;;;;;;;10.70;7.97;;;23.90;99.90;;;;;;5042693;28;20091;-80
2023/07/07 05:06:28;;;;;;;8.18;7.35;;;23.70;99.90;;;;;;5038429;28;20105;-78
2023/07/07 05:08:55;;;;;;;7.82;6.80;;;23.50;99.90;;;;;;5039689;28;20065;-78
2023/07/07 05:11:23;;;;;;;8.63;7.70;;;23.20;99.90;;;;;;5037604;28;20044;-78
2023/07/07 05:13:50;;;;;;;8.15;7.32;;;22.60;99.90;;;;;;5039794;28;20160;-78
2023/07/07 05:16:21;;;;;;;10.13;8.63;;;21.70;99.90;;;;;;5043581;28;20119;-79
2023/07/07 05:18:47;;;;;;;9.93;7.45;;;21.00;99.90;;;;;;5042688;28;20060;-77
2023/07/07 05:21:15;;;;;;;7.90;7.03;;;20.50;99.90;;;;;;5040301;28;20068;-79
2023/07/07 05:23:41;;;;;;;7.80;7.10;;;20.60;99.90;;;;;;5037145;28;20047;-78
2023/07/07 05:26:07;;;;;;;9.75;7.10;;;21.70;99.90;;;;;;5042724;28;20029;-78
2023/07/07 05:28:33;;;;;;;11.88;7.05;;;23.20;99.90;;;;;;5040492;28;20028;-78
2023/07/07 05:30:59;;;;;;;9.00;7.30;;;24.30;99.90;;;;;;5033963;28;20029;-79
2023/07/07 05:33:25;;;;;;;11.65;7.65;;;25.40;99.90;;;;;;5042224;28;20381;-79
2023/07/07 05:35:53;;;;;;;12.80;7.35;;;25.50;99.90;;;;;;5039580;28;20131;-78
2023/07/07 05:38:21;;;;;;;10.18;7.57;;;25.00;99.90;;;;;;5043976;28;20127;-78
2023/07/07 05:40:46;;;;;;;8.68;7.25;;;24.60;99.90;;;;;;5042172;28;20066;-79
2023/07/07 05:43:13;;;;;;;16.08;7.68;;;24.10;99.90;;;;;;5039888;28;20515;-79
2023/07/07 05:45:38;;;;;;;12.25;7.80;;;23.70;99.90;;;;;;5042906;28;20124;-78
2023/07/07 05:48:05;;;;;;;11.15;7.28;;;23.50;99.90;;;;;;5041868;28;20108;-78
2023/07/07 05:50:31;;;;;;;10.48;6.88;;;23.40;99.90;;;;;;5036905;28;20125;-80
2023/07/07 05:52:56;;;;;;;11.70;7.53;;;23.20;99.90;;;;;;5033716;28;20551;-80
2023/07/07 05:55:28;;;;;;;12.50;7.20;;;23.10;99.90;;;;;;5048544;28;20488;-80
2023/07/07 05:57:54;;;;;;;10.07;6.72;;;23.10;99.90;;;;;;5043255;28;20041;-80
2023/07/07 06:00:20;;;;;;;11.95;7.28;;;23.00;99.90;;;;;;5051167;28;20042;-80
2023/07/07 06:02:46;;;;;;;9.30;7.22;;;23.10;99.90;;;;;;5044495;28;20033;-80
2023/07/07 06:05:12;;;;;;;10.80;7.57;;;23.00;99.90;;;;;;5043215;28;20500;-80
2023/07/07 06:07:37;;;;;;;12.30;6.93;;;23.10;99.90;;;;;;5047494;28;20567;-80
2023/07/07 06:10:03;;;;;;;9.43;7.18;;;23.10;99.90;;;;;;5046541;28;20052;-80
2023/07/07 06:12:30;;;;;;;10.40;6.10;;;23.20;99.90;;;;;;5044509;28;20647;-80
2023/07/07 06:14:55;;;;;;;7.82;6.65;;;23.20;99.90;;;;;;5043629;28;20076;-80
2023/07/07 06:17:21;;;;;;;9.55;7.25;;;23.30;99.90;;;;;;5040871;28;20625;-80
2023/07/07 06:19:46;;;;;;;11.20;6.78;;;23.40;99.90;;;;;;5045707;28;20530;-80
2023/07/07 06:22:12;;;;;;;8.35;5.85;;;23.40;99.90;;;;;;5049071;28;20395;-80
2023/07/07 06:24:37;;;;;;;11.10;6.10;;;23.60;99.90;;;;;;5042852;28;20045;-80
2023/07/07 06:27:03;;;;;;;10.07;6.90;;;23.70;99.90;;;;;;5044444;28;20082;-80
2023/07/07 06:29:31;;;;;;;8.50;5.80;;;23.70;99.90;;;;;;5046076;28;20037;-80
2023/07/07 06:31:56;;;;;;;15.40;7.00;;;23.80;99.90;;;;;;5045421;28;20048;-80
2023/07/07 06:34:22;;;;;;;13.23;7.32;;;23.90;99.90;;;;;;5041116;28;20053;-80
2023/07/07 06:36:47;;;;;;;16.13;6.70;;;23.90;99.90;;;;;;5041348;28;20041;-80
2023/07/07 06:39:13;;;;;;;9.80;6.28;;;24.00;99.90;;;;;;5043517;28;20037;-81
2023/07/07 06:41:38;;;;;;;12.60;6.63;;;24.40;99.90;;;;;;5044900;28;20046;-80
2023/07/07 06:44:04;;;;;;;9.73;6.57;;;24.20;99.90;;;;;;5046859;28;20040;-80
2023/07/07 06:46:31;;;;;;;12.27;6.10;;;24.10;99.90;;;;;;5045264;28;20063;-81
2023/07/07 06:48:58;;;;;;;13.07;6.10;;;24.10;99.90;;;;;;5046385;28;20095;-81
2023/07/07 06:51:24;;;;;;;9.77;5.78;;;24.20;99.90;;;;;;5045855;28;20115;-80
2023/07/07 06:53:49;;;;;;;13.35;5.95;;;24.30;99.90;;;;;;5044442;28;20466;-78
2023/07/07 06:56:15;;;;;;;9.30;5.68;;;24.30;99.90;;;;;;5036060;28;20357;-78
2023/07/07 06:58:40;;;;;;;9.40;4.95;;;24.40;99.90;;;;;;5035598;28;20047;-78
2023/07/07 07:01:09;;;;;;;12.90;5.22;;;24.50;99.90;;;;;;5036375;28;20104;-78
2023/07/07 07:03:35;;;;;;;7.30;5.15;;;24.60;99.90;;;;;;5038546;28;20072;-78
2023/07/07 07:06:01;;;;;;;8.25;5.28;;;24.70;99.90;;;;;;5038572;28;20033;-78
2023/07/07 07:08:27;;;;;;;10.95;4.60;;;24.70;99.90;;;;;;5038646;28;20041;-78
2023/07/07 07:10:52;;;;;;;13.07;5.10;;;24.90;99.90;;;;;;5043619;28;20087;-78
2023/07/07 07:13:18;;;;;;;9.38;5.38;;;24.90;99.90;;;;;;5036569;28;20045;-79
2023/07/07 07:15:43;;;;;;;8.25;4.57;;;24.90;99.90;;;;;;5035695;28;20040;-79
2023/07/07 07:18:13;;;;;;;8.77;4.35;;;25.00;99.90;;;;;;5038468;28;20037;-78
2023/07/07 07:20:40;;;;;;;7.22;4.47;;;25.20;99.90;;;;;;5038855;28;20087;-78
2023/07/07 07:23:05;;;;;;;6.40;4.47;;;25.30;99.90;;;;;;5040992;28;20069;-79
2023/07/07 07:25:31;;;;;;;8.32;4.15;;;25.30;99.90;;;;;;5036393;28;20033;-78
2023/07/07 07:27:57;;;;;;;9.30;4.20;;;25.30;99.90;;;;;;5041249;28;20103;-78
2023/07/07 07:30:22;;;;;;;7.25;3.97;;;25.40;99.90;;;;;;5041055;28;20127;-79
2023/07/07 07:32:48;;;;;;;5.65;3.08;;;25.30;99.90;;;;;;5047827;28;20079;-78
2023/07/07 07:35:14;;;;;;;8.52;3.55;;;25.20;99.80;;;;;;5039587;28;20037;-78
2023/07/07 07:37:40;;;;;;;9.90;4.10;;;25.40;99.80;;;;;;5036266;28;20045;-79
2023/07/07 07:40:06;;;;;;;6.53;3.35;;;25.40;99.80;;;;;;5039222;28;20033;-78
2023/07/07 07:42:32;;;;;;;6.75;3.65;;;25.50;99.50;;;;;;5026851;28;20042;-79
2023/07/07 07:44:57;;;;;;;8.05;3.28;;;25.70;99.70;;;;;;5040635;28;20458;-79
2023/07/07 07:47:23;;;;;;;5.03;3.20;;;25.70;99.30;;;;;;5043390;28;20105;-79
2023/07/07 07:49:49;;;;;;;7.15;3.80;;;25.60;99.30;;;;;;5041362;28;20045;-78
2023/07/07 07:52:14;;;;;;;9.73;3.25;;;25.70;99.70;;;;;;5042404;28;20049;-78
2023/07/07 07:54:40;;;;;;;5.22;3.20;;;25.90;99.40;;;;;;5044864;28;20488;-79
2023/07/07 07:57:06;;;;;;;6.80;3.38;;;26.00;99.40;;;;;;5046286;28;20033;-78
2023/07/07 07:59:32;;;;;;;5.13;2.80;;;26.10;98.60;;;;;;5042259;28;20049;-79
2023/07/07 08:01:58;;;;;;;6.22;2.70;;;25.90;97.70;;;;;;5040745;28;20049;-79
2023/07/07 08:04:23;;;;;;;3.70;2.25;;;25.90;97.80;;;;;;5022333;28;20053;-79
2023/07/07 08:06:52;;;;;;;5.68;2.60;;;26.00;98.20;;;;;;5040850;28;20041;-79
2023/07/07 08:09:18;;;;;;;6.80;2.50;;;26.10;98.50;;;;;;5041456;28;20574;-78
2023/07/07 08:11:43;;;;;;;4.07;2.30;;;26.10;98.50;;;;;;5045659;28;20075;-80
2023/07/07 08:14:14;;;;;;;6.03;2.00;;;26.10;97.60;;;;;;5038427;28;20156;-79
2023/07/07 08:16:39;;;;;;;3.65;1.33;;;26.20;98.00;;;;;;5046214;28;20034;-79
2023/07/07 08:19:06;;;;;;;2.78;1.60;;;26.00;97.30;;;;;;5043727;28;20055;-79
2023/07/07 08:21:31;;;;;;;6.13;2.17;;;25.90;96.70;;;;;;5043977;28;20037;-78
2023/07/07 08:23:57;;;;;;;5.07;1.65;;;26.00;97.00;;;;;;5042097;28;20041;-79
2023/07/07 08:26:22;;;;;;;3.45;1.63;;;25.90;97.20;;;;;;5040402;28;20045;-78
2023/07/07 08:28:48;;;;;;;6.97;1.75;;;25.90;96.40;;;;;;5039054;28;20045;-80
2023/07/07 08:31:14;;;;;;;5.22;1.95;;;25.90;96.10;;;;;;5042436;28;20125;-79
2023/07/07 08:33:43;;;;;;;8.20;2.05;;;25.90;96.20;;;;;;5037727;28;20053;-79
2023/07/07 08:36:09;;;;;;;3.25;1.55;;;25.90;96.10;;;;;;5048636;28;20044;-80
2023/07/07 08:38:35;;;;;;;3.72;1.90;;;26.00;96.10;;;;;;5025005;28;20037;-78
2023/07/07 08:41:01;;;;;;;6.93;1.85;;;26.20;96.60;;;;;;5042415;28;20048;-79
2023/07/07 08:43:29;;;;;;;4.43;1.60;;;26.30;96.30;;;;;;5041000;28;20078;-80
2023/07/07 08:46:19;;;;;;;7.88;1.65;;;26.50;95.90;;;;;;5038169;28;20037;-79
2023/07/07 08:48:59;;;;;;;3.75;2.63;;;26.50;94.30;;;;;;5022190;28;20542;-80
2023/07/07 08:51:36;;;;;;;3.17;1.80;;;26.40;94.80;;;;;;5047191;28;20051;-79
2023/07/07 08:54:30;;;;;;;3.45;1.90;;;26.50;95.90;;;;;;5044263;28;20109;-79
2023/07/07 08:57:12;;;;;;;7.30;2.03;;;26.60;93.90;;;;;;5039420;28;20037;-79
2023/07/07 08:59:52;;;;;;;6.07;1.90;;;26.60;94.80;;;;;;5041178;28;20120;-80
2023/07/07 09:02:28;;;;;;;4.25;1.33;;;26.80;95.10;;;;;;5041646;28;20053;-79
2023/07/07 09:05:02;;;;;;;3.58;1.35;;;26.90;93.70;;;;;;5041567;28;20033;-79
2023/07/07 09:08:02;;;;;;;7.10;1.73;;;27.00;94.10;;;;;;5043842;28;20123;-79
2023/07/07 09:10:36;;;;;;;3.47;1.77;;;26.90;93.60;;;;;;5044029;28;20123;-79
2023/07/07 09:13:10;;;;;;;3.75;1.90;;;26.90;93.40;;;;;;5042231;28;20059;-79
2023/07/07 09:15:39;;;;;;;4.60;1.90;;;26.70;93.90;;;;;;5042068;28;20074;-79
2023/07/07 09:18:21;;;;;;;3.78;1.52;;;26.60;93.80;;;;;;5042263;28;20069;-81
2023/07/07 09:20:54;;;;;;;3.25;2.10;;;26.70;93.00;;;;;;5039858;28;20124;-79
2023/07/07 09:23:24;;;;;;;4.00;2.05;;;26.70;93.90;;;;;;5039747;28;20045;-79
2023/07/07 09:25:57;;;;;;;2.10;1.13;;;26.80;93.30;;;;;;5040182;28;20123;-81
2023/07/07 09:28:28;;;;;;;2.92;1.50;;;26.60;92.00;;;;;;5038918;28;20219;-81
2023/07/07 09:31:18;;;;;;;5.57;1.63;;;26.60;91.60;;;;;;5041277;28;20068;-79
2023/07/07 09:33:44;;;;;;;5.43;1.83;;;26.80;91.30;;;;;;5039121;28;20045;-79
2023/07/07 09:36:24;;;;;;;3.70;1.35;;;26.60;91.00;;;;;;5041047;28;20037;-79
2023/07/07 09:39:12;;;;;;;3.13;1.30;;;26.70;90.90;;;;;;5039583;28;20053;-79
2023/07/07 09:42:08;;;;;;;3.08;1.73;;;26.80;91.70;;;;;;5042326;28;20120;-80
2023/07/07 09:44:54;;;;;;;5.32;1.83;;;26.90;91.20;;;;;;5037256;28;20040;-80
2023/07/07 09:47:57;;;;;;;2.85;1.38;;;26.90;91.40;;;;;;5044758;28;20056;-81
2023/07/07 09:50:31;;;;;;;3.22;1.35;;;26.80;91.10;;;;;;5029909;28;20132;-79
2023/07/07 09:53:02;;;;;;;3.25;1.50;;;26.90;92.40;;;;;;5046626;28;20106;-80
2023/07/07 09:55:30;;;;;;;3.67;1.60;;;27.00;92.00;;;;;;5047179;28;20440;-81
2023/07/07 09:58:03;;;;;;;3.80;1.30;;;27.20;92.50;;;;;;5027080;28;20052;-81
2023/07/07 10:00:31;;;;;;;2.45;1.25;;;26.90;90.40;;;;;;5040455;28;20053;-81
2023/07/07 10:02:58;;;;;;;3.25;1.17;;;26.70;89.10;;;;;;5040282;28;20061;-80
2023/07/07 10:05:30;;;;;;;3.67;1.40;;;26.70;91.00;;;;;;5039850;28;20072;-79
2023/07/07 10:07:57;;;;;;;5.72;1.60;;;26.60;90.10;;;;;;5040111;28;20052;-79
2023/07/07 10:10:22;;;;;;;3.00;1.48;;;26.70;90.90;;;;;;5043328;28;20056;-79
2023/07/07 10:12:48;;;;;;;1.88;1.17;;;26.90;91.30;;;;;;5046565;28;20045;-82
2023/07/07 10:15:45;;;;;;;3.60;1.35;;;27.00;91.30;;;;;;5057191;28;20098;-79
2023/07/07 10:18:16;;;;;;;2.13;1.65;;;27.20;91.90;;;;;;5037249;28;20040;-80
2023/07/07 10:20:42;;;;;;;1.70;1.08;;;27.10;90.10;;;;;;5041010;28;20087;-80
2023/07/07 10:23:10;;;;;;;2.80;1.70;;;27.20;91.10;;;;;;5042636;28;20042;-79
2023/07/07 10:25:36;;;;;;;4.25;2.45;;;27.30;90.50;;;;;;5056536;28;20108;-79
2023/07/07 10:28:01;;;;;;;3.28;1.60;;;27.30;91.20;;;;;;5038301;28;21083;-80
2023/07/07 10:30:27;;;;;;;2.03;1.42;;;27.20;89.10;;;;;;5043443;28;20049;-80
2023/07/07 10:32:53;;;;;;;2.13;1.40;;;27.10;87.80;;;;;;5040628;28;20395;-79
2023/07/07 10:35:20;;;;;;;4.38;1.50;;;27.00;90.40;;;;;;5044730;28;20044;-79
2023/07/07 10:37:46;;;;;;;4.15;1.55;;;27.00;91.20;;;;;;5039807;28;20048;-79
2023/07/07 10:40:21;;;;;;;3.03;1.63;;;26.90;91.30;;;;;;5040295;28;20037;-80
2023/07/07 10:42:51;;;;;;;4.05;1.98;;;26.90;91.10;;;;;;5042870;28;20037;-82
2023/07/07 10:45:17;;;;;;;3.42;1.83;;;26.80;89.50;;;;;;5041750;28;20044;-79
2023/07/07 10:47:42;;;;;;;4.07;1.90;;;26.80;90.30;;;;;;5041817;28;20120;-79
2023/07/07 10:50:15;;;;;;;4.78;1.73;;;26.60;89.80;;;;;;5042570;28;20503;-79
2023/07/07 10:53:15;;;;;;;2.95;1.45;;;26.80;89.30;;;;;;5041918;28;20033;-80
2023/07/07 10:56:00;;;;;;;2.42;1.63;;;27.00;91.80;;;;;;5041597;28;20057;-80
2023/07/07 10:59:04;;;;;;;4.75;2.13;;;27.20;91.00;;;;;;5043655;28;20446;-81
2023/07/07 11:01:54;;;;;;;4.15;1.73;;;27.20;88.70;;;;;;5008980;28;20063;-79
2023/07/07 11:04:41;;;;;;;2.58;1.83;;;27.20;90.90;;;;;;5045982;28;20040;-80
2023/07/07 11:07:40;;;;;;;5.32;2.03;;;27.20;89.60;;;;;;5043329;28;20099;-81
2023/07/07 11:10:05;;;;;;;4.38;1.83;;;27.30;89.30;;;;;;5049406;28;20056;-80
2023/07/07 11:13:03;;;;;;;3.95;1.92;;;27.10;88.20;;;;;;5045945;28;20045;-81
2023/07/07 11:16:11;;;;;;;2.72;1.73;;;27.00;87.90;;;;;;5045204;28;20052;-79
2023/07/07 11:18:45;;;;;;;3.22;1.67;;;27.10;88.20;;;;;;5045547;28;20411;-79
2023/07/07 11:21:18;;;;;;;2.67;1.50;;;27.20;88.70;;;;;;5047750;28;20029;-80
2023/07/07 11:24:05;;;;;;;3.50;1.85;;;27.20;89.50;;;;;;5049009;28;20123;-80
2023/07/07 11:27:01;;;;;;;4.05;1.50;;;27.00;84.60;;;;;;5047763;28;20037;-79
2023/07/07 11:30:02;;;;;;;4.45;1.30;;;27.10;87.10;;;;;;5046425;28;20034;-81
2023/07/07 11:32:45;;;;;;;4.15;1.90;;;27.20;87.80;;;;;;4954806;28;20117;-81
2023/07/07 11:35:23;;;;;;;2.78;1.83;;;27.40;89.60;;;;;;5034174;28;20753;-81
2023/07/07 11:38:07;;;;;;;2.08;1.67;;;27.30;87.20;;;;;;5038641;28;20107;-81
2023/07/07 11:40:56;;;;;;;2.78;1.98;;;27.30;86.60;;;;;;5046557;28;20092;-81
2023/07/07 11:43:30;;;;;;;3.28;1.50;;;27.30;86.20;;;;;;5060072;28;20343;-79
2023/07/07 11:46:08;;;;;;;2.50;1.58;;;27.10;84.60;;;;;;5041988;28;20076;-79
2023/07/07 11:49:12;;;;;;;2.67;1.73;;;27.10;86.20;;;;;;5058387;28;20053;-81
2023/07/07 11:51:47;;;;;;;3.35;2.03;;;27.20;86.20;;;;;;5035830;28;20050;-81
2023/07/07 11:54:15;;;;;;;;;;;27.10;85.30;;;;;;5043652;28;20049;-80
2023/07/07 11:56:59;;;;;;;6.72;1.90;;;26.90;84.60;;;;;;5044327;28;20390;-82
2023/07/07 11:59:36;;;;;;;6.07;1.92;;;27.10;86.80;;;;;;5042187;28;20044;-80
2023/07/07 12:02:05;;;;;;;3.05;1.58;;;27.00;85.90;;;;;;5042642;28;20033;-79
2023/07/07 12:04:38;;;;;;;4.13;1.60;;;27.00;85.80;;;;;;5060649;28;20040;-80
2023/07/07 12:07:11;;;;;;;6.03;1.80;;;27.00;86.50;;;;;;5048888;28;20538;-80
2023/07/07 12:09:44;;;;;;;2.83;1.52;;;27.10;89.60;;;;;;5047961;28;20056;-78
2023/07/07 12:12:55;;;;;;;2.90;1.60;;;27.00;87.30;;;;;;5050074;28;20052;-81
2023/07/07 12:15:26;;;;;;;5.10;2.17;;;26.90;86.20;;;;;;5044226;28;20136;-80
2023/07/07 12:18:10;;;;;;;4.80;1.73;;;27.00;84.10;;;;;;5044638;28;20057;-80
2023/07/07 12:21:13;;;;;;;1.98;1.52;;;27.20;86.30;;;;;;5053859;28;20048;-81
2023/07/07 12:23:46;;;;;;;2.92;1.80;;;27.00;82.30;;;;;;5008063;28;20172;-81
2023/07/07 12:26:25;;;;;;;2.45;1.83;;;27.20;81.80;;;;;;5046450;28;20044;-81
2023/07/07 12:28:57;;;;;;;4.22;1.77;;;27.20;82.90;;;;;;5047749;28;20446;-80
2023/07/07 12:31:25;;;;;;;4.15;1.85;;;27.10;82.40;;;;;;5050231;28;20052;-81
2023/07/07 12:33:51;;;;;;;2.40;1.65;;;27.10;83.30;;;;;;5045661;28;20072;-81
2023/07/07 12:36:28;;;;;;;2.83;1.73;;;27.20;83.90;;;;;;5046501;28;20111;-78
2023/07/07 12:38:57;;;;;;;3.30;1.42;;;27.10;83.00;;;;;;5049468;28;20044;-81
2023/07/07 12:41:26;;;;;;;4.15;2.20;;;27.20;83.20;;;;;;5048215;28;20052;-81
2023/07/07 12:44:03;;;;;;;2.03;1.45;;;27.20;83.90;;;;;;5043764;28;20033;-81
2023/07/07 12:46:37;;;;;;;3.88;1.70;;;27.20;84.20;;;;;;5037516;28;20041;-81
2023/07/07 12:49:22;;;;;;;3.60;1.57;;;27.20;83.30;;;;;;5052298;28;20048;-80
2023/07/07 12:51:54;;;;;;;2.67;1.83;;;27.10;82.90;;;;;;5046019;28;20045;-81
2023/07/07 12:54:33;;;;;;;5.35;1.65;;;27.00;81.20;;;;;;5050224;28;20086;-82
2023/07/07 12:57:11;;;;;;;3.67;2.15;;;26.70;84.50;;;;;;5049139;28;20878;-80
2023/07/07 12:59:39;;;;;;;3.80;2.08;;;26.50;79.70;;;;;;5047501;28;20106;-80
2023/07/07 13:02:14;;;;;;;2.20;1.73;;;26.40;77.30;;;;;;5047885;28;20047;-80
2023/07/07 13:04:46;;;;;;;2.65;1.60;;;26.50;80.40;;;;;;5047063;28;20049;-81